createdAt,value
2016-08-26T00:00:04.866Z,25.56
2016-08-26T00:00:31.364Z,25.61
2016-08-26T00:00:54.095Z,25.57
2016-08-26T00:01:15.821Z,25.53
2016-08-26T00:01:38.609Z,25.60
2016-08-26T00:02:05.122Z,25.80
2016-08-26T00:02:26.856Z,25.70
2016-08-26T00:02:53.350Z,25.59
2016-08-26T00:03:20.846Z,25.55
2016-08-26T00:03:42.694Z,25.71
2016-08-26T00:04:04.441Z,25.79
2016-08-26T00:04:26.166Z,25.85
2016-08-26T00:04:47.942Z,25.84
2016-08-26T00:05:09.670Z,25.85
2016-08-26T00:05:31.399Z,25.85
2016-08-26T00:05:54.131Z,25.79
2016-08-26T00:06:21.637Z,25.85
2016-08-26T00:07:09.851Z,25.84
2016-08-26T00:07:31.582Z,25.76
2016-08-26T00:07:53.341Z,25.85
2016-08-26T00:08:15.069Z,25.77
2016-08-26T00:08:36.802Z,25.70
2016-08-26T00:08:58.522Z,25.73
2016-08-26T00:09:21.263Z,25.73
2016-08-26T00:09:43.006Z,25.68
2016-08-26T00:10:04.727Z,25.43
2016-08-26T00:10:29.026Z,25.38
2016-08-26T00:10:50.765Z,25.50
2016-08-26T00:11:12.496Z,25.68
2016-08-26T00:11:34.219Z,25.69
2016-08-26T00:11:58.805Z,25.65
2016-08-26T00:12:20.559Z,25.46
2016-08-26T00:12:42.294Z,25.54
2016-08-26T00:13:06.814Z,25.52
2016-08-26T00:13:28.569Z,25.49
2016-08-26T00:13:50.302Z,25.48
2016-08-26T00:14:12.028Z,25.51
2016-08-26T00:14:33.764Z,25.46
2016-08-26T00:14:55.501Z,25.47
2016-08-26T00:15:23.048Z,25.51
2016-08-26T00:15:49.550Z,25.56
2016-08-26T00:16:11.301Z,25.49
2016-08-26T00:16:33.236Z,25.49
2016-08-26T00:16:59.739Z,25.64
2016-08-26T00:17:21.489Z,25.64
2016-08-26T00:17:43.251Z,25.58
2016-08-26T00:18:05.004Z,25.63
2016-08-26T00:18:26.735Z,25.57
2016-08-26T00:18:49.488Z,25.50
2016-08-26T00:19:11.215Z,25.50
2016-08-26T00:19:32.956Z,25.59
2016-08-26T00:19:54.700Z,25.53
2016-08-26T00:20:16.440Z,25.62
2016-08-26T00:20:39.166Z,25.63
2016-08-26T00:21:00.977Z,25.61
2016-08-26T00:21:22.698Z,25.41
2016-08-26T00:21:44.458Z,25.46
2016-08-26T00:22:06.199Z,25.50
2016-08-26T00:22:27.927Z,25.41
2016-08-26T00:22:49.663Z,25.39
2016-08-26T00:23:11.405Z,25.51
2016-08-26T00:23:33.133Z,25.46
2016-08-26T00:23:54.874Z,25.46
2016-08-26T00:24:16.610Z,25.49
2016-08-26T00:24:38.380Z,25.48
2016-08-26T00:25:00.103Z,25.49
2016-08-26T00:25:21.829Z,25.45
2016-08-26T00:25:48.332Z,25.38
2016-08-26T00:26:10.055Z,25.40
2016-08-26T00:26:31.776Z,25.41
2016-08-26T00:26:53.498Z,25.37
2016-08-26T00:27:19.996Z,25.31
2016-08-26T00:27:41.718Z,25.28
2016-08-26T00:28:03.438Z,25.33
2016-08-26T00:28:25.253Z,25.34
2016-08-26T00:28:47.021Z,25.36
2016-08-26T00:29:08.761Z,25.38
2016-08-26T00:29:30.496Z,25.42
2016-08-26T00:29:52.269Z,25.39
2016-08-26T00:30:14.992Z,25.32
2016-08-26T00:30:37.739Z,25.49
2016-08-26T00:30:59.513Z,25.57
2016-08-26T00:31:21.265Z,25.66
2016-08-26T00:31:43.046Z,25.68
2016-08-26T00:32:14.309Z,25.52
2016-08-26T00:32:36.169Z,25.39
2016-08-26T00:32:57.892Z,25.48
2016-08-26T00:33:19.614Z,25.60
2016-08-26T00:33:46.112Z,25.63
2016-08-26T00:34:07.841Z,25.65
2016-08-26T00:34:34.340Z,25.71
2016-08-26T00:34:56.095Z,25.69
2016-08-26T00:35:17.830Z,25.68
2016-08-26T00:35:39.571Z,25.66
2016-08-26T00:36:33.560Z,25.72
2016-08-26T00:36:55.287Z,25.59
2016-08-26T00:37:43.521Z,25.54
2016-08-26T00:38:10.022Z,25.52
2016-08-26T00:38:31.757Z,25.42
2016-08-26T00:38:58.285Z,25.33
2016-08-26T00:39:20.024Z,25.34
2016-08-26T00:39:41.782Z,25.24
2016-08-26T00:40:03.510Z,25.18
2016-08-26T00:40:25.311Z,25.07
2016-08-26T00:40:47.033Z,25.11
2016-08-26T00:41:08.758Z,25.18
2016-08-26T00:41:33.156Z,25.07
2016-08-26T00:41:54.892Z,25.06
2016-08-26T00:42:27.167Z,25.09
2016-08-26T00:42:48.905Z,25.01
2016-08-26T00:43:10.635Z,25.15
2016-08-26T00:43:33.364Z,25.09
2016-08-26T00:43:55.097Z,25.05
2016-08-26T00:44:17.825Z,25.13
2016-08-26T00:44:39.577Z,25.14
2016-08-26T00:45:01.297Z,25.10
2016-08-26T00:45:23.026Z,24.97
2016-08-26T00:45:44.749Z,25.05
2016-08-26T00:46:06.497Z,24.98
2016-08-26T00:46:28.310Z,25.02
2016-08-26T00:46:50.036Z,25.01
2016-08-26T00:47:11.786Z,24.91
2016-08-26T00:47:33.521Z,24.81
2016-08-26T00:47:55.246Z,24.69
2016-08-26T00:48:17.007Z,24.64
2016-08-26T00:48:38.758Z,24.65
2016-08-26T00:49:00.490Z,24.71
2016-08-26T00:49:22.291Z,24.86
2016-08-26T00:49:44.025Z,24.90
2016-08-26T00:50:05.771Z,24.93
2016-08-26T00:50:27.504Z,24.93
2016-08-26T00:50:51.969Z,24.95
2016-08-26T00:51:18.463Z,24.86
2016-08-26T00:51:40.200Z,24.85
2016-08-26T00:52:07.538Z,24.94
2016-08-26T00:52:29.264Z,25.09
2016-08-26T00:52:51.057Z,24.99
2016-08-26T00:53:12.785Z,25.01
2016-08-26T00:53:34.510Z,24.96
2016-08-26T00:53:56.264Z,24.96
2016-08-26T00:54:17.993Z,24.99
2016-08-26T00:54:39.721Z,25.04
2016-08-26T00:55:06.225Z,25.03
2016-08-26T00:55:27.985Z,24.99
2016-08-26T00:55:49.697Z,25.05
2016-08-26T00:56:11.440Z,25.01
2016-08-26T00:56:37.932Z,24.97
2016-08-26T00:56:59.662Z,24.93
2016-08-26T00:57:21.428Z,24.79
2016-08-26T00:57:43.168Z,24.84
2016-08-26T00:58:04.886Z,25.01
2016-08-26T00:58:26.613Z,25.10
2016-08-26T00:58:48.358Z,25.14
2016-08-26T00:59:14.852Z,25.16
2016-08-26T00:59:37.592Z,25.18
2016-08-26T00:59:59.325Z,25.10
2016-08-26T01:00:21.072Z,25.07
2016-08-26T01:00:42.931Z,25.02
2016-08-26T01:01:04.759Z,24.89
2016-08-26T01:01:26.487Z,24.96
2016-08-26T01:01:48.227Z,24.97
2016-08-26T01:02:09.961Z,24.91
2016-08-26T01:02:31.691Z,24.77
2016-08-26T01:02:53.414Z,24.69
2016-08-26T01:03:15.144Z,24.70
2016-08-26T01:03:36.878Z,24.86
2016-08-26T01:03:58.635Z,24.87
2016-08-26T01:04:20.365Z,24.95
2016-08-26T01:04:42.098Z,25.03
2016-08-26T01:05:03.813Z,25.05
2016-08-26T01:05:25.556Z,24.96
2016-08-26T01:05:47.274Z,24.83
2016-08-26T01:06:09.018Z,24.85
2016-08-26T01:06:30.798Z,24.74
2016-08-26T01:06:52.538Z,24.74
2016-08-26T01:07:15.271Z,24.66
2016-08-26T01:07:41.779Z,24.65
2016-08-26T01:08:03.504Z,24.66
2016-08-26T01:08:25.227Z,24.54
2016-08-26T01:08:46.945Z,24.45
2016-08-26T01:09:08.814Z,24.33
2016-08-26T01:09:35.322Z,24.24
2016-08-26T01:09:59.616Z,24.14
2016-08-26T01:10:21.388Z,24.26
2016-08-26T01:10:43.111Z,24.39
2016-08-26T01:11:04.884Z,24.33
2016-08-26T01:11:26.608Z,24.34
2016-08-26T01:11:48.391Z,24.17
2016-08-26T01:12:10.109Z,24.10
2016-08-26T01:12:31.840Z,24.08
2016-08-26T01:12:53.564Z,24.05
2016-08-26T01:13:15.302Z,24.13
2016-08-26T01:13:37.040Z,24.25
2016-08-26T01:13:58.766Z,24.35
2016-08-26T01:14:20.564Z,24.37
2016-08-26T01:14:42.291Z,24.57
2016-08-26T01:15:04.063Z,24.80
2016-08-26T01:15:30.572Z,24.74
2016-08-26T01:15:52.299Z,24.63
2016-08-26T01:16:14.023Z,24.57
2016-08-26T01:16:35.747Z,24.43
2016-08-26T01:16:57.498Z,24.57
2016-08-26T01:17:19.281Z,24.65
2016-08-26T01:17:41.010Z,24.51
2016-08-26T01:18:02.728Z,24.63
2016-08-26T01:18:24.461Z,24.69
2016-08-26T01:18:46.186Z,24.70
2016-08-26T01:19:07.937Z,24.68
2016-08-26T01:19:29.703Z,24.46
2016-08-26T01:19:51.450Z,24.56
2016-08-26T01:20:13.206Z,24.62
2016-08-26T01:20:34.933Z,24.72
2016-08-26T01:20:56.650Z,24.70
2016-08-26T01:21:18.375Z,24.64
2016-08-26T01:21:40.140Z,24.73
2016-08-26T01:22:01.953Z,24.75
2016-08-26T01:22:23.684Z,24.69
2016-08-26T01:22:45.416Z,24.71
2016-08-26T01:23:07.148Z,24.63
2016-08-26T01:23:28.893Z,24.72
2016-08-26T01:23:50.654Z,24.61
2016-08-26T01:24:12.378Z,24.56
2016-08-26T01:24:34.105Z,24.47
2016-08-26T01:24:55.845Z,24.35
2016-08-26T01:25:45.083Z,24.06
2016-08-26T01:26:33.296Z,23.98
2016-08-26T01:26:55.031Z,24.24
2016-08-26T01:27:16.752Z,24.53
2016-08-26T01:27:38.481Z,24.65
2016-08-26T01:28:00.297Z,24.78
2016-08-26T01:28:22.043Z,24.90
2016-08-26T01:28:43.774Z,24.97
2016-08-26T01:29:05.511Z,25.02
2016-08-26T01:29:27.235Z,24.90
2016-08-26T01:29:48.966Z,24.65
2016-08-26T01:30:11.759Z,24.56
2016-08-26T01:30:33.509Z,24.60
2016-08-26T01:30:55.235Z,24.50
2016-08-26T01:31:16.968Z,24.51
2016-08-26T01:31:38.695Z,24.61
2016-08-26T01:32:00.427Z,24.67
2016-08-26T01:32:22.151Z,24.58
2016-08-26T01:32:43.869Z,24.50
2016-08-26T01:33:05.598Z,24.44
2016-08-26T01:33:27.322Z,24.52
2016-08-26T01:33:49.143Z,24.54
2016-08-26T01:34:38.368Z,24.39
2016-08-26T01:35:00.085Z,24.37
2016-08-26T01:35:21.877Z,24.36
2016-08-26T01:35:43.649Z,24.40
2016-08-26T01:36:05.376Z,24.39
2016-08-26T01:36:27.097Z,24.35
2016-08-26T01:36:48.834Z,24.44
2016-08-26T01:37:10.557Z,24.61
2016-08-26T01:37:32.286Z,24.71
2016-08-26T01:37:54.005Z,24.68
2016-08-26T01:38:15.769Z,24.59
2016-08-26T01:38:37.538Z,24.70
2016-08-26T01:38:59.261Z,24.77
2016-08-26T01:39:20.990Z,24.78
2016-08-26T01:39:42.789Z,24.61
2016-08-26T01:40:04.530Z,24.49
2016-08-26T01:40:26.343Z,24.44
2016-08-26T01:40:48.077Z,24.32
2016-08-26T01:41:09.796Z,24.19
2016-08-26T01:41:31.590Z,24.22
2016-08-26T01:42:19.925Z,24.23
2016-08-26T01:42:41.662Z,24.23
2016-08-26T01:43:03.531Z,24.36
2016-08-26T01:43:25.354Z,24.45
2016-08-26T01:43:47.088Z,24.51
2016-08-26T01:44:08.861Z,24.49
2016-08-26T01:44:30.575Z,24.42
2016-08-26T01:44:52.308Z,24.54
2016-08-26T01:45:14.030Z,24.60
2016-08-26T01:45:35.760Z,24.62
2016-08-26T01:46:03.258Z,24.38
2016-08-26T01:46:24.989Z,24.36
2016-08-26T01:46:46.720Z,24.35
2016-08-26T01:47:08.458Z,24.33
2016-08-26T01:47:30.190Z,24.22
2016-08-26T01:47:51.957Z,24.21
2016-08-26T01:48:13.709Z,24.17
2016-08-26T01:48:35.459Z,24.08
2016-08-26T01:48:57.293Z,24.01
2016-08-26T01:49:19.018Z,24.00
2016-08-26T01:49:40.749Z,24.05
2016-08-26T01:50:02.477Z,24.00
2016-08-26T01:50:24.235Z,24.00
2016-08-26T01:50:45.946Z,24.08
2016-08-26T01:51:07.678Z,24.13
2016-08-26T01:51:29.417Z,24.15
2016-08-26T01:51:55.918Z,24.16
2016-08-26T01:52:17.652Z,24.24
2016-08-26T01:52:39.406Z,24.11
2016-08-26T01:53:01.124Z,23.99
2016-08-26T01:53:23.856Z,24.10
2016-08-26T01:53:45.609Z,24.25
2016-08-26T01:54:07.336Z,24.29
2016-08-26T01:54:30.055Z,24.29
2016-08-26T01:54:51.779Z,24.16
2016-08-26T01:55:13.506Z,24.25
2016-08-26T01:55:35.235Z,24.17
2016-08-26T01:55:56.961Z,24.12
2016-08-26T01:56:18.698Z,24.21
2016-08-26T01:56:40.420Z,24.16
2016-08-26T01:57:02.171Z,24.01
2016-08-26T01:57:23.893Z,24.18
2016-08-26T01:57:45.669Z,24.15
2016-08-26T01:58:07.406Z,24.10
2016-08-26T01:58:29.232Z,24.05
2016-08-26T01:58:50.932Z,24.08
2016-08-26T01:59:12.660Z,24.20
2016-08-26T01:59:35.381Z,24.26
2016-08-26T01:59:57.101Z,24.23
2016-08-26T02:00:18.821Z,23.99
2016-08-26T02:00:40.606Z,23.81
2016-08-26T02:01:28.819Z,24.17
2016-08-26T02:01:50.564Z,24.19
2016-08-26T02:02:12.294Z,24.30
2016-08-26T02:02:34.010Z,24.40
2016-08-26T02:02:55.810Z,24.48
2016-08-26T02:03:17.556Z,24.57
2016-08-26T02:03:39.374Z,24.68
2016-08-26T02:04:01.105Z,24.62
2016-08-26T02:04:22.852Z,24.60
2016-08-26T02:04:44.573Z,24.36
2016-08-26T02:05:06.292Z,24.34
2016-08-26T02:05:28.075Z,24.42
2016-08-26T02:05:49.802Z,24.30
2016-08-26T02:06:11.552Z,24.32
2016-08-26T02:06:33.281Z,24.22
2016-08-26T02:06:59.771Z,24.21
2016-08-26T02:07:49.028Z,24.10
2016-08-26T02:08:10.768Z,24.18
2016-08-26T02:08:32.491Z,24.23
2016-08-26T02:08:54.299Z,24.09
2016-08-26T02:09:16.131Z,23.90
2016-08-26T02:09:47.399Z,23.75
2016-08-26T02:10:09.134Z,23.73
2016-08-26T02:10:30.855Z,23.70
2016-08-26T02:10:57.356Z,23.68
2016-08-26T02:11:19.105Z,23.66
2016-08-26T02:11:41.835Z,23.69
2016-08-26T02:12:03.569Z,23.89
2016-08-26T02:12:25.330Z,23.97
2016-08-26T02:12:50.328Z,23.85
2016-08-26T02:13:12.212Z,23.77
2016-08-26T02:13:34.153Z,23.87
2016-08-26T02:13:57.030Z,23.85
2016-08-26T02:14:18.782Z,23.92
2016-08-26T02:14:40.507Z,23.94
2016-08-26T02:15:02.269Z,23.95
2016-08-26T02:15:28.772Z,23.89
2016-08-26T02:15:50.511Z,23.82
2016-08-26T02:16:13.243Z,23.79
2016-08-26T02:16:34.981Z,23.85
2016-08-26T02:16:56.696Z,23.79
2016-08-26T02:17:18.532Z,23.80
2016-08-26T02:17:45.042Z,24.05
2016-08-26T02:18:06.774Z,24.17
2016-08-26T02:18:33.290Z,24.30
2016-08-26T02:18:55.019Z,24.30
2016-08-26T02:19:16.746Z,24.18
2016-08-26T02:19:38.471Z,24.09
2016-08-26T02:20:00.205Z,24.11
2016-08-26T02:20:21.944Z,24.14
2016-08-26T02:20:43.665Z,24.00
2016-08-26T02:21:10.157Z,24.05
2016-08-26T02:21:31.880Z,24.01
2016-08-26T02:21:53.627Z,23.95
2016-08-26T02:22:15.383Z,23.85
2016-08-26T02:23:05.636Z,23.74
2016-08-26T02:23:27.355Z,23.81
2016-08-26T02:23:49.114Z,23.87
2016-08-26T02:24:10.837Z,23.87
2016-08-26T02:24:32.558Z,24.06
2016-08-26T02:24:54.279Z,24.15
2016-08-26T02:25:47.265Z,24.36
2016-08-26T02:26:08.999Z,24.31
2016-08-26T02:26:57.199Z,24.13
2016-08-26T02:27:18.932Z,24.10
2016-08-26T02:27:40.691Z,24.03
2016-08-26T02:28:02.411Z,24.17
2016-08-26T02:28:24.146Z,24.16
2016-08-26T02:28:45.873Z,24.02
2016-08-26T02:29:07.598Z,23.94
2016-08-26T02:29:29.370Z,23.89
2016-08-26T02:29:51.108Z,23.87
2016-08-26T02:30:12.836Z,23.81
2016-08-26T02:30:34.558Z,23.70
2016-08-26T02:30:56.280Z,23.63
2016-08-26T02:31:19.065Z,23.54
2016-08-26T02:31:40.805Z,23.50
2016-08-26T02:32:02.571Z,23.48
2016-08-26T02:32:24.354Z,23.64
2016-08-26T02:32:50.846Z,23.77
2016-08-26T02:33:12.590Z,23.88
2016-08-26T02:33:34.324Z,23.88
2016-08-26T02:33:56.066Z,24.06
2016-08-26T02:34:20.552Z,24.04
2016-08-26T02:34:42.287Z,23.94
2016-08-26T02:35:04.011Z,23.81
2016-08-26T02:35:25.745Z,23.75
2016-08-26T02:35:47.486Z,23.74
2016-08-26T02:36:09.253Z,23.73
2016-08-26T02:36:35.740Z,23.75
2016-08-26T02:36:57.460Z,23.64
2016-08-26T02:37:19.187Z,23.61
2016-08-26T02:37:40.935Z,23.51
2016-08-26T02:38:02.719Z,23.38
2016-08-26T02:38:24.445Z,23.29
2016-08-26T02:38:46.166Z,23.31
2016-08-26T02:39:12.663Z,23.26
2016-08-26T02:39:34.398Z,23.25
2016-08-26T02:40:00.886Z,23.15
2016-08-26T02:40:22.607Z,23.06
2016-08-26T02:40:44.329Z,23.02
2016-08-26T02:41:06.073Z,23.08
2016-08-26T02:41:27.822Z,23.15
2016-08-26T02:41:49.548Z,23.28
2016-08-26T02:42:11.275Z,23.33
2016-08-26T02:42:32.994Z,23.33
2016-08-26T02:42:54.715Z,23.38
2016-08-26T02:43:16.471Z,23.50
2016-08-26T02:43:38.191Z,23.52
2016-08-26T02:44:00.032Z,23.52
2016-08-26T02:44:21.787Z,23.66
2016-08-26T02:44:49.316Z,23.74
2016-08-26T02:45:18.283Z,23.95
2016-08-26T02:45:40.013Z,24.03
2016-08-26T02:46:01.751Z,24.02
2016-08-26T02:46:23.477Z,23.84
2016-08-26T02:46:45.224Z,23.93
2016-08-26T02:47:06.964Z,23.92
2016-08-26T02:47:28.706Z,23.80
2016-08-26T02:47:53.141Z,23.71
2016-08-26T02:48:17.390Z,23.65
2016-08-26T02:48:39.137Z,23.82
2016-08-26T02:49:02.921Z,23.78
2016-08-26T02:49:24.656Z,23.75
2016-08-26T02:49:51.150Z,23.80
2016-08-26T02:50:12.870Z,23.94
2016-08-26T02:50:34.594Z,24.04
2016-08-26T02:50:56.319Z,24.06
2016-08-26T02:51:19.055Z,24.04
2016-08-26T02:51:40.786Z,23.98
2016-08-26T02:52:02.610Z,23.85
2016-08-26T02:52:24.350Z,23.59
2016-08-26T02:52:47.066Z,23.41
2016-08-26T02:53:09.774Z,23.41
2016-08-26T02:53:58.011Z,23.60
2016-08-26T02:54:19.728Z,23.64
2016-08-26T02:54:41.449Z,23.55
2016-08-26T02:55:04.215Z,23.36
2016-08-26T02:55:25.975Z,23.23
2016-08-26T02:55:47.695Z,23.11
2016-08-26T02:56:09.500Z,23.11
2016-08-26T02:56:31.238Z,23.04
2016-08-26T02:56:53.001Z,23.08
2016-08-26T02:57:14.761Z,23.08
2016-08-26T02:57:36.489Z,23.20
2016-08-26T02:57:58.259Z,23.34
2016-08-26T02:58:20.053Z,23.36
2016-08-26T02:58:41.804Z,23.41
2016-08-26T02:59:03.590Z,23.62
2016-08-26T02:59:25.308Z,23.61
2016-08-26T02:59:47.047Z,23.59
2016-08-26T03:00:08.773Z,23.63
2016-08-26T03:00:30.522Z,23.56
2016-08-26T03:01:21.730Z,23.57
2016-08-26T03:01:46.388Z,23.60
2016-08-26T03:02:08.126Z,23.66
2016-08-26T03:02:29.880Z,23.44
2016-08-26T03:02:51.669Z,23.37
2016-08-26T03:03:13.393Z,23.23
2016-08-26T03:03:35.221Z,23.19
2016-08-26T03:03:57.007Z,23.33
2016-08-26T03:04:18.813Z,23.34
2016-08-26T03:04:40.527Z,23.46
2016-08-26T03:05:02.257Z,23.63
2016-08-26T03:05:28.757Z,23.74
2016-08-26T03:05:51.503Z,23.87
2016-08-26T03:06:13.365Z,23.68
2016-08-26T03:06:35.088Z,23.55
2016-08-26T03:06:56.808Z,23.62
2016-08-26T03:07:45.030Z,23.60
2016-08-26T03:08:06.758Z,23.67
2016-08-26T03:08:28.477Z,23.67
2016-08-26T03:08:50.214Z,23.69
2016-08-26T03:09:12.012Z,23.73
2016-08-26T03:09:34.124Z,23.49
2016-08-26T03:10:00.635Z,23.42
2016-08-26T03:10:27.160Z,23.39
2016-08-26T03:10:48.883Z,23.28
2016-08-26T03:11:10.614Z,23.15
2016-08-26T03:11:32.360Z,23.12
2016-08-26T03:11:54.534Z,23.24
2016-08-26T03:12:16.417Z,23.31
2016-08-26T03:12:38.194Z,23.37
2016-08-26T03:12:59.985Z,23.40
2016-08-26T03:13:21.743Z,23.42
2016-08-26T03:13:43.475Z,23.53
2016-08-26T03:14:05.197Z,23.65
2016-08-26T03:14:26.935Z,23.56
2016-08-26T03:14:48.662Z,23.48
2016-08-26T03:15:10.399Z,23.46
2016-08-26T03:15:32.115Z,23.33
2016-08-26T03:15:53.849Z,23.18
2016-08-26T03:16:15.663Z,23.12
2016-08-26T03:16:37.381Z,23.09
2016-08-26T03:17:03.867Z,23.06
2016-08-26T03:17:25.634Z,23.02
2016-08-26T03:17:47.363Z,23.07
2016-08-26T03:18:09.104Z,23.12
2016-08-26T03:18:30.829Z,23.24
2016-08-26T03:18:52.548Z,23.23
2016-08-26T03:19:14.331Z,23.26
2016-08-26T03:19:36.182Z,23.44
2016-08-26T03:19:57.931Z,23.53
2016-08-26T03:20:19.653Z,23.60
2016-08-26T03:20:41.379Z,23.60
2016-08-26T03:21:03.115Z,23.49
2016-08-26T03:21:24.834Z,23.45
2016-08-26T03:21:51.313Z,23.43
2016-08-26T03:22:14.033Z,23.45
2016-08-26T03:22:35.802Z,23.34
2016-08-26T03:22:57.511Z,23.24
2016-08-26T03:23:19.242Z,23.31
2016-08-26T03:23:40.999Z,23.32
2016-08-26T03:24:02.742Z,23.27
2016-08-26T03:24:24.476Z,23.24
2016-08-26T03:24:46.651Z,23.25
2016-08-26T03:25:08.380Z,23.26
2016-08-26T03:25:31.119Z,23.32
2016-08-26T03:25:52.847Z,23.35
2016-08-26T03:26:14.576Z,23.38
2016-08-26T03:26:36.344Z,23.46
2016-08-26T03:26:58.144Z,23.28
2016-08-26T03:27:19.967Z,23.16
2016-08-26T03:27:41.695Z,23.02
2016-08-26T03:28:03.413Z,22.89
2016-08-26T03:28:25.160Z,22.84
2016-08-26T03:28:46.888Z,22.74
2016-08-26T03:29:08.648Z,22.83
2016-08-26T03:29:30.377Z,23.01
2016-08-26T03:29:52.096Z,23.01
2016-08-26T03:30:14.829Z,22.97
2016-08-26T03:30:36.645Z,22.96
2016-08-26T03:30:58.444Z,22.91
2016-08-26T03:31:20.166Z,22.87
2016-08-26T03:31:41.890Z,22.82
2016-08-26T03:32:03.606Z,22.88
2016-08-26T03:32:25.336Z,22.95
2016-08-26T03:32:51.831Z,22.93
2016-08-26T03:33:13.612Z,22.92
2016-08-26T03:33:35.341Z,22.82
2016-08-26T03:33:57.114Z,22.78
2016-08-26T03:34:18.929Z,22.84
2016-08-26T03:34:40.648Z,22.91
2016-08-26T03:35:02.370Z,22.96
2016-08-26T03:35:24.118Z,22.97
2016-08-26T03:35:45.898Z,22.93
2016-08-26T03:36:07.695Z,22.94
2016-08-26T03:36:29.446Z,22.93
2016-08-26T03:36:51.180Z,22.94
2016-08-26T03:37:12.933Z,22.88
2016-08-26T03:37:35.715Z,22.91
2016-08-26T03:37:57.442Z,22.85
2016-08-26T03:38:19.192Z,22.83
2016-08-26T03:38:40.925Z,22.70
2016-08-26T03:39:02.640Z,22.72
2016-08-26T03:39:24.373Z,22.61
2016-08-26T03:40:12.618Z,22.60
2016-08-26T03:40:39.118Z,22.68
2016-08-26T03:41:00.845Z,22.66
2016-08-26T03:41:22.567Z,22.65
2016-08-26T03:41:44.288Z,22.88
2016-08-26T03:42:06.009Z,23.09
2016-08-26T03:42:27.730Z,23.17
2016-08-26T03:42:49.488Z,23.17
2016-08-26T03:43:11.202Z,23.06
2016-08-26T03:43:32.927Z,22.96
2016-08-26T03:43:54.656Z,22.83
2016-08-26T03:44:16.380Z,22.87
2016-08-26T03:44:38.113Z,22.92
2016-08-26T03:44:59.861Z,23.06
2016-08-26T03:45:21.583Z,23.06
2016-08-26T03:45:43.394Z,22.98
2016-08-26T03:46:05.129Z,23.05
2016-08-26T03:46:26.853Z,22.89
2016-08-26T03:46:48.590Z,22.88
2016-08-26T03:47:10.306Z,22.82
2016-08-26T03:47:32.028Z,22.79
2016-08-26T03:47:53.903Z,22.75
2016-08-26T03:48:15.672Z,22.82
2016-08-26T03:48:37.407Z,22.84
2016-08-26T03:48:59.187Z,22.97
2016-08-26T03:49:20.921Z,23.05
2016-08-26T03:49:42.661Z,23.03
2016-08-26T03:50:04.381Z,23.18
2016-08-26T03:50:26.111Z,23.24
2016-08-26T03:50:47.859Z,23.33
2016-08-26T03:51:09.641Z,23.27
2016-08-26T03:51:31.435Z,23.24
2016-08-26T03:51:53.192Z,23.14
2016-08-26T03:52:14.928Z,23.14
2016-08-26T03:53:03.234Z,23.11
2016-08-26T03:53:24.970Z,23.12
2016-08-26T03:53:47.708Z,23.22
2016-08-26T03:54:09.449Z,23.21
2016-08-26T03:54:31.168Z,23.24
2016-08-26T03:54:52.968Z,23.28
2016-08-26T03:55:14.779Z,23.23
2016-08-26T03:55:36.526Z,22.99
2016-08-26T03:55:58.251Z,22.82
2016-08-26T03:56:19.996Z,22.71
2016-08-26T03:56:42.803Z,22.57
2016-08-26T03:57:04.794Z,22.56
2016-08-26T03:57:26.758Z,22.52
2016-08-26T03:57:53.263Z,22.53
2016-08-26T03:58:19.774Z,22.45
2016-08-26T03:58:46.353Z,22.50
2016-08-26T03:59:12.855Z,22.36
2016-08-26T03:59:34.604Z,22.34
2016-08-26T04:00:01.110Z,22.33
2016-08-26T04:00:22.844Z,22.28
2016-08-26T04:00:44.574Z,22.30
2016-08-26T04:01:06.301Z,22.42
2016-08-26T04:01:28.100Z,22.36
2016-08-26T04:01:49.814Z,22.35
2016-08-26T04:02:11.664Z,22.36
2016-08-26T04:02:33.390Z,22.31
2016-08-26T04:02:55.191Z,22.31
2016-08-26T04:03:16.914Z,22.51
2016-08-26T04:03:38.687Z,22.64
2016-08-26T04:04:26.915Z,22.78
2016-08-26T04:04:53.407Z,22.87
2016-08-26T04:05:16.147Z,22.90
2016-08-26T04:05:37.876Z,22.74
2016-08-26T04:05:59.618Z,22.61
2016-08-26T04:06:21.366Z,22.39
2016-08-26T04:06:44.239Z,22.24
2016-08-26T04:07:10.735Z,22.14
2016-08-26T04:07:37.266Z,22.25
2016-08-26T04:07:59.010Z,22.31
2016-08-26T04:08:20.906Z,22.19
2016-08-26T04:08:42.724Z,22.25
2016-08-26T04:09:04.471Z,22.34
2016-08-26T04:09:26.287Z,22.30
2016-08-26T04:09:48.033Z,22.48
2016-08-26T04:10:09.759Z,22.40
2016-08-26T04:10:36.252Z,22.54
2016-08-26T04:10:58.006Z,22.73
2016-08-26T04:11:19.743Z,22.86
2016-08-26T04:11:41.472Z,22.92
2016-08-26T04:12:03.209Z,22.82
2016-08-26T04:12:51.416Z,22.73
2016-08-26T04:13:13.146Z,22.78
2016-08-26T04:13:34.894Z,22.77
2016-08-26T04:13:56.631Z,22.70
2016-08-26T04:14:19.354Z,22.60
2016-08-26T04:14:41.074Z,22.63
2016-08-26T04:15:02.866Z,22.48
2016-08-26T04:15:25.617Z,22.62
2016-08-26T04:15:47.344Z,22.58
2016-08-26T04:16:09.091Z,22.69
2016-08-26T04:16:30.810Z,22.78
2016-08-26T04:16:52.534Z,22.93
2016-08-26T04:17:14.316Z,23.08
2016-08-26T04:17:36.033Z,23.15
2016-08-26T04:17:57.754Z,23.07
2016-08-26T04:18:19.497Z,23.00
2016-08-26T04:18:41.233Z,23.07
2016-08-26T04:19:02.957Z,23.02
2016-08-26T04:19:24.796Z,22.92
2016-08-26T04:19:46.654Z,22.74
2016-08-26T04:20:08.437Z,22.56
2016-08-26T04:20:30.216Z,22.46
2016-08-26T04:20:51.949Z,22.39
2016-08-26T04:21:13.690Z,22.44
2016-08-26T04:21:35.417Z,22.51
2016-08-26T04:21:58.153Z,22.65
2016-08-26T04:23:06.469Z,22.87
2016-08-26T04:23:28.185Z,22.90
2016-08-26T04:23:49.910Z,22.96
2016-08-26T04:24:45.719Z,22.81
2016-08-26T04:25:07.453Z,22.70
2016-08-26T04:25:29.202Z,22.68
2016-08-26T04:25:50.944Z,22.66
2016-08-26T04:26:12.682Z,22.68
2016-08-26T04:26:34.405Z,22.78
2016-08-26T04:26:56.209Z,22.85
2016-08-26T04:27:17.950Z,22.70
2016-08-26T04:27:39.690Z,22.74
2016-08-26T04:28:01.425Z,22.75
2016-08-26T04:28:23.150Z,22.71
2016-08-26T04:28:44.883Z,22.68
2016-08-26T04:29:06.770Z,22.56
2016-08-26T04:29:38.144Z,22.38
2016-08-26T04:30:02.585Z,22.30
2016-08-26T04:30:30.120Z,22.13
2016-08-26T04:30:51.877Z,22.11
2016-08-26T04:31:13.642Z,22.17
2016-08-26T04:31:35.539Z,22.30
2016-08-26T04:31:57.285Z,22.38
2016-08-26T04:32:19.078Z,22.34
2016-08-26T04:32:40.812Z,22.43
2016-08-26T04:33:02.523Z,22.30
2016-08-26T04:33:24.261Z,22.25
2016-08-26T04:33:46.031Z,22.13
2016-08-26T04:34:07.750Z,22.09
2016-08-26T04:34:29.466Z,22.05
2016-08-26T04:34:51.190Z,22.28
2016-08-26T04:35:12.911Z,22.42
2016-08-26T04:35:34.641Z,22.51
2016-08-26T04:35:56.380Z,22.57
2016-08-26T04:36:18.105Z,22.48
2016-08-26T04:36:39.853Z,22.39
2016-08-26T04:37:06.350Z,22.31
2016-08-26T04:37:32.841Z,22.27
2016-08-26T04:37:54.553Z,22.38
2016-08-26T04:38:16.269Z,22.47
2016-08-26T04:38:37.990Z,22.58
2016-08-26T04:38:59.735Z,22.50
2016-08-26T04:39:21.472Z,22.36
2016-08-26T04:39:43.190Z,22.42
2016-08-26T04:40:04.907Z,22.45
2016-08-26T04:40:26.621Z,22.36
2016-08-26T04:40:48.340Z,22.44
2016-08-26T04:41:10.061Z,22.35
2016-08-26T04:41:31.775Z,22.33
2016-08-26T04:41:53.494Z,22.16
2016-08-26T04:42:15.210Z,21.95
2016-08-26T04:42:36.939Z,21.82
2016-08-26T04:42:58.653Z,21.64
2016-08-26T04:43:20.378Z,21.78
2016-08-26T04:43:42.097Z,21.82
2016-08-26T04:44:03.811Z,21.90
2016-08-26T04:44:25.530Z,21.96
2016-08-26T04:44:47.245Z,22.15
2016-08-26T04:45:08.961Z,22.29
2016-08-26T04:45:30.671Z,22.35
2016-08-26T04:45:52.415Z,22.23
2016-08-26T04:46:14.118Z,22.22
2016-08-26T04:46:35.835Z,22.21
2016-08-26T04:46:57.599Z,22.32
2016-08-26T04:47:19.311Z,22.37
2016-08-26T04:47:41.072Z,22.42
2016-08-26T04:48:02.791Z,22.61
2016-08-26T04:48:24.508Z,22.71
2016-08-26T04:48:46.222Z,22.73
2016-08-26T04:49:07.937Z,22.66
2016-08-26T04:49:29.646Z,22.59
2016-08-26T04:49:51.363Z,22.65
2016-08-26T04:50:13.083Z,22.60
2016-08-26T04:50:34.797Z,22.48
2016-08-26T04:50:56.511Z,22.33
2016-08-26T04:51:18.339Z,22.31
2016-08-26T04:51:40.050Z,22.29
2016-08-26T04:52:01.766Z,22.31
2016-08-26T04:52:23.483Z,22.26
2016-08-26T04:52:45.200Z,22.22
2016-08-26T04:53:06.915Z,22.17
2016-08-26T04:53:28.655Z,22.11
2016-08-26T04:53:50.369Z,22.06
2016-08-26T04:54:12.090Z,21.99
2016-08-26T04:54:33.809Z,22.01
2016-08-26T04:54:55.535Z,22.11
2016-08-26T04:55:17.251Z,22.23
2016-08-26T04:55:38.990Z,22.38
2016-08-26T04:56:00.712Z,22.41
2016-08-26T04:56:22.424Z,22.56